Time;durP1;ratioP1;P1;durP2;ratioP2;P2;SDS_P1;SDS_P2;PMS_P1;PMS_P2;Temp;Humidity;BMP_temperature;BMP_pressure;BME280_temperature;BME280_humidity;BME280_pressure;Samples;Min_cycle;Max_cycle;Signal;HPM_P1;HPM_P2
2021/07/27 21:39:30;;;;;;;;;18.67;13.00;;;;;;;;3545663;39;1486191;-79
2021/07/27 21:41:57;;;;;;;;;14.33;13.00;;;;;;;;3576236;39;113997;-81
2021/07/27 21:44:23;;;;;;;;;15.00;13.00;;;;;;;;3577206;39;111859;-81
2021/07/27 21:46:50;;;;;;;;;9.67;5.00;;;;;;;;3577745;39;113386;-81
2021/07/27 21:49:17;;;;;;;;;15.33;15.00;;;;;;;;3579274;39;113889;-82
2021/07/27 21:51:43;;;;;;;;;17.00;14.67;;;;;;;;3580317;39;112183;-82
2021/07/27 21:54:10;;;;;;;;;15.33;13.00;;;;;;;;3579282;39;113730;-82
2021/07/27 21:56:42;;;;;;;;;13.33;12.00;;;;;;;;3581601;39;114480;-82
2021/07/27 21:59:08;;;;;;;;;14.67;14.67;;;;;;;;3583090;39;111744;-81
2021/07/27 22:01:35;;;;;;;;;16.00;14.33;;;;;;;;3577585;39;114059;-81
2021/07/27 22:04:02;;;;;;;;;13.67;11.33;;;;;;;;3578577;39;112071;-81
2021/07/27 22:06:28;;;;;;;;;16.00;14.00;;;;;;;;3579120;39;111957;-81
2021/07/27 22:08:55;;;;;;;;;14.00;13.00;;;;;;;;3577879;39;113920;-82
2021/07/27 22:11:22;;;;;;;;;12.67;12.67;;;;;;;;3575426;39;112558;-77
2021/07/27 22:13:50;;;;;;;;;16.67;16.67;;;;;;;;3577231;39;113195;-78
2021/07/27 22:16:18;;;;;;;;;14.67;13.33;;;;;;;;3575713;39;113968;-77
2021/07/27 22:18:45;;;;;;;;;17.33;13.67;;;;;;;;3577432;39;111742;-77
2021/07/27 22:21:11;;;;;;;;;13.67;12.33;;;;;;;;3578285;39;113457;-78
2021/07/27 22:23:38;;;;;;;;;13.00;12.00;;;;;;;;3576069;39;111889;-78
2021/07/27 22:26:04;;;;;;;;;15.33;14.67;;;;;;;;3577447;39;113308;-78
2021/07/27 22:28:31;;;;;;;;;13.67;13.00;;;;;;;;3575795;39;113985;-79
2021/07/27 22:30:59;;;;;;;;;12.33;11.67;;;;;;;;3576926;39;112314;-79
2021/07/27 22:33:25;;;;;;;;;14.00;13.00;;;;;;;;3577063;39;113422;-77
2021/07/27 22:35:52;;;;;;;;;12.67;11.00;;;;;;;;3578216;39;113942;-78
2021/07/27 22:38:19;;;;;;;;;15.67;12.67;;;;;;;;3577633;39;112189;-78
2021/07/27 22:40:46;;;;;;;;;13.00;12.67;;;;;;;;3577387;39;113363;-78
2021/07/27 22:43:12;;;;;;;;;15.00;12.00;;;;;;;;3578070;39;113979;-79
2021/07/27 22:45:39;;;;;;;;;16.67;14.00;;;;;;;;3577867;39;113339;-79
2021/07/27 22:48:07;;;;;;;;;13.00;12.00;;;;;;;;3577191;39;114728;-79
2021/07/27 22:50:33;;;;;;;;;15.67;14.00;;;;;;;;3569976;39;112350;-78
2021/07/27 22:53:00;;;;;;;;;13.33;12.00;;;;;;;;3570221;39;113177;-78
2021/07/27 22:55:26;;;;;;;;;15.00;14.00;;;;;;;;3571488;39;114012;-78
2021/07/27 22:57:53;;;;;;;;;14.00;11.67;;;;;;;;3569598;39;112123;-78
2021/07/27 23:00:20;;;;;;;;;11.67;11.00;;;;;;;;3571014;39;113241;-79
2021/07/27 23:02:47;;;;;;;;;12.67;11.00;;;;;;;;3569916;39;113812;-79
2021/07/27 23:05:15;;;;;;;;;13.33;13.00;;;;;;;;3571813;39;112294;-78
2021/07/27 23:07:41;;;;;;;;;15.67;13.67;;;;;;;;3572350;39;114078;-78
2021/07/27 23:10:09;;;;;;;;;16.00;14.00;;;;;;;;3569057;39;111902;-78
2021/07/27 23:12:35;;;;;;;;;13.00;11.00;;;;;;;;3570856;39;113483;-79
2021/07/27 23:15:02;;;;;;;;;14.33;13.33;;;;;;;;3568854;39;113864;-79
2021/07/27 23:17:28;;;;;;;;;20.33;17.33;;;;;;;;3570190;39;112204;-77
2021/07/27 23:19:55;;;;;;;;;15.00;13.00;;;;;;;;3569507;39;113245;-78
2021/07/27 23:22:24;;;;;;;;;15.00;12.67;;;;;;;;3569305;39;113918;-78
2021/07/27 23:25:00;;;;;;;;;18.67;15.67;;;;;;;;3569899;39;112366;-79
2021/07/27 23:27:27;;;;;;;;;17.00;15.67;;;;;;;;3572139;39;113147;-78
2021/07/27 23:29:53;;;;;;;;;16.00;16.00;;;;;;;;3569715;39;111694;-77
2021/07/27 23:32:20;;;;;;;;;15.67;13.00;;;;;;;;3569662;39;113566;-78
2021/07/27 23:34:46;;;;;;;;;15.67;15.67;;;;;;;;3569607;39;114003;-78
2021/07/27 23:37:13;;;;;;;;;14.67;14.67;;;;;;;;3568809;39;112180;-77
2021/07/27 23:39:41;;;;;;;;;14.67;13.33;;;;;;;;3570726;39;113186;-78
2021/07/27 23:42:08;;;;;;;;;16.00;13.00;;;;;;;;3570333;39;113876;-77
2021/07/27 23:44:34;;;;;;;;;14.00;12.00;;;;;;;;3568898;39;112028;-78
2021/07/27 23:47:02;;;;;;;;;14.00;14.00;;;;;;;;3570840;39;113481;-78
2021/07/27 23:49:28;;;;;;;;;16.67;15.00;;;;;;;;3572076;39;111920;-79
2021/07/27 23:51:55;;;;;;;;;18.33;18.33;;;;;;;;3569487;39;112702;-78
2021/07/27 23:54:21;;;;;;;;;15.33;15.33;;;;;;;;3569019;39;114095;-77
2021/07/27 23:56:49;;;;;;;;;18.00;16.67;;;;;;;;3570522;39;111973;-78
2021/07/27 23:59:16;;;;;;;;;17.00;14.67;;;;;;;;3570078;39;113774;-77
